Time;durP1;ratioP1;P1;durP2;ratioP2;P2;SDS_P1;SDS_P2;PMS_P1;PMS_P2;Temp;Humidity;BMP_temperature;BMP_pressure;BME280_temperature;BME280_humidity;BME280_pressure;Samples;Min_cycle;Max_cycle;Signal;HPM_P1;HPM_P2
2024/02/11 00:01:14;;;;;;;25.53;20.83;;;12.10;99.90;;;;;;4995119;28;20861;-69
2024/02/11 00:03:40;;;;;;;21.13;18.40;;;12.10;99.90;;;;;;4993018;28;20927;-69
2024/02/11 00:06:08;;;;;;;23.53;19.50;;;12.10;99.90;;;;;;4994009;28;20482;-69
2024/02/11 00:08:34;;;;;;;24.87;22.23;;;12.00;99.90;;;;;;4994295;28;20579;-69
2024/02/11 00:11:00;;;;;;;23.50;20.80;;;12.00;99.90;;;;;;4994417;28;20456;-69
2024/02/11 00:13:27;;;;;;;20.33;16.97;;;12.00;99.90;;;;;;4994810;28;20879;-69
2024/02/11 00:15:52;;;;;;;22.37;19.80;;;12.00;99.90;;;;;;4994125;28;20461;-69
2024/02/11 00:18:19;;;;;;;21.57;19.10;;;12.10;99.90;;;;;;4994564;28;20502;-69
2024/02/11 00:20:45;;;;;;;23.53;18.73;;;12.10;99.90;;;;;;4994208;28;20223;-70
2024/02/11 00:23:12;;;;;;;24.30;20.43;;;12.00;99.90;;;;;;4992762;28;20508;-69
2024/02/11 00:25:39;;;;;;;25.40;20.60;;;12.00;99.90;;;;;;4993533;28;20192;-69
2024/02/11 00:28:07;;;;;;;19.90;17.80;;;11.90;99.90;;;;;;4993863;28;20404;-69
2024/02/11 00:30:34;;;;;;;21.67;18.27;;;11.80;99.90;;;;;;4993805;28;20421;-69
2024/02/11 00:32:59;;;;;;;19.60;17.00;;;11.80;99.90;;;;;;4993897;28;20918;-69
2024/02/11 00:35:27;;;;;;;29.97;23.13;;;11.80;99.90;;;;;;4994031;28;20441;-68
2024/02/11 00:37:52;;;;;;;21.07;18.67;;;11.90;99.90;;;;;;4994053;28;20253;-70
2024/02/11 00:40:19;;;;;;;26.73;21.10;;;11.90;99.90;;;;;;4993744;28;20555;-68
2024/02/11 00:42:45;;;;;;;23.33;20.40;;;11.90;99.90;;;;;;4994026;28;20267;-70
2024/02/11 00:45:12;;;;;;;24.83;20.70;;;11.80;99.90;;;;;;4993675;28;20431;-69
2024/02/11 00:47:40;;;;;;;21.10;18.90;;;11.70;99.90;;;;;;4993838;28;20457;-70
2024/02/11 00:50:07;;;;;;;18.47;16.47;;;11.80;99.90;;;;;;4993826;28;20408;-69
2024/02/11 00:52:33;;;;;;;24.03;20.60;;;11.90;99.90;;;;;;4993848;28;20924;-70
2024/02/11 00:54:59;;;;;;;24.63;20.53;;;11.90;99.90;;;;;;4993562;28;20545;-70
2024/02/11 00:57:25;;;;;;;19.20;17.17;;;11.80;99.90;;;;;;4994035;28;20254;-70
2024/02/11 00:59:50;;;;;;;20.83;17.83;;;11.80;99.90;;;;;;4993404;28;20412;-70
2024/02/11 01:02:16;;;;;;;17.67;15.77;;;11.80;99.90;;;;;;4995905;28;20218;-70
2024/02/11 01:04:42;;;;;;;23.43;20.60;;;11.80;99.90;;;;;;4997818;28;20193;-70
2024/02/11 01:07:07;;;;;;;21.20;17.40;;;11.80;99.90;;;;;;4997581;28;20603;-70
2024/02/11 01:09:33;;;;;;;22.00;18.40;;;11.80;99.90;;;;;;4997865;28;20238;-69
2024/02/11 01:11:59;;;;;;;18.80;16.90;;;11.80;99.90;;;;;;4997762;28;20174;-69
2024/02/11 01:14:25;;;;;;;22.20;17.77;;;11.80;99.90;;;;;;4997706;28;20426;-69
2024/02/11 01:16:50;;;;;;;20.53;17.57;;;11.80;99.90;;;;;;4997802;28;20181;-69
2024/02/11 01:19:16;;;;;;;19.70;17.73;;;11.80;99.90;;;;;;4997560;28;20178;-69
2024/02/11 01:21:44;;;;;;;23.80;19.20;;;11.80;99.90;;;;;;4997060;28;20568;-69
2024/02/11 01:24:10;;;;;;;19.30;16.27;;;11.90;99.90;;;;;;4997309;28;20169;-69
2024/02/11 01:26:37;;;;;;;22.63;19.10;;;11.90;99.90;;;;;;4997076;28;20436;-69
2024/02/11 01:29:06;;;;;;;16.80;14.97;;;11.80;99.90;;;;;;5002212;28;20417;-68
2024/02/11 01:31:31;;;;;;;21.90;19.60;;;11.80;99.90;;;;;;4997568;28;20510;-69
2024/02/11 01:33:57;;;;;;;19.03;15.60;;;11.70;99.90;;;;;;4997733;28;20441;-69
2024/02/11 01:36:22;;;;;;;20.10;16.30;;;11.80;99.90;;;;;;4997378;28;20189;-70
2024/02/11 01:38:49;;;;;;;16.13;14.50;;;11.80;99.90;;;;;;4998050;28;20252;-70
2024/02/11 01:41:15;;;;;;;22.67;20.27;;;11.80;99.90;;;;;;4997799;28;20583;-69
2024/02/11 01:43:40;;;;;;;18.50;16.57;;;11.90;99.90;;;;;;4997826;28;20483;-69
2024/02/11 01:46:06;;;;;;;19.37;16.03;;;11.90;99.90;;;;;;4996752;28;20629;-70
2024/02/11 01:48:32;;;;;;;18.77;16.77;;;11.90;99.90;;;;;;4996829;28;20221;-69
2024/02/11 01:50:59;;;;;;;21.43;16.30;;;11.90;99.90;;;;;;4996940;28;20285;-69
2024/02/11 01:53:27;;;;;;;18.80;16.50;;;11.90;99.90;;;;;;4996855;28;20901;-70
2024/02/11 01:55:53;;;;;;;16.27;14.33;;;11.90;99.90;;;;;;4996390;28;20467;-69
2024/02/11 01:58:19;;;;;;;23.93;18.00;;;11.80;99.90;;;;;;4996862;28;20444;-69
2024/02/11 02:00:47;;;;;;;15.67;13.67;;;11.80;99.90;;;;;;4996517;28;20945;-69
2024/02/11 02:03:14;;;;;;;14.80;13.27;;;11.80;99.90;;;;;;4996604;28;20497;-70
2024/02/11 02:05:40;;;;;;;16.10;14.30;;;11.90;99.90;;;;;;4995400;28;20506;-69
2024/02/11 02:08:08;;;;;;;14.40;12.90;;;11.90;99.90;;;;;;4996626;28;20505;-69
2024/02/11 02:10:35;;;;;;;14.40;12.73;;;11.90;99.90;;;;;;4996622;28;20650;-69
2024/02/11 02:13:01;;;;;;;15.00;12.70;;;11.90;99.90;;;;;;4995468;28;20417;-69
2024/02/11 02:15:26;;;;;;;15.43;12.67;;;11.80;99.90;;;;;;4996354;28;20437;-69
2024/02/11 02:17:52;;;;;;;16.83;12.43;;;11.80;99.90;;;;;;4996139;28;20187;-69
2024/02/11 02:20:18;;;;;;;14.77;12.57;;;11.80;99.90;;;;;;4996591;28;20205;-69
2024/02/11 02:22:44;;;;;;;15.33;12.20;;;11.80;99.90;;;;;;4995457;28;20197;-69
2024/02/11 02:25:10;;;;;;;14.57;12.40;;;11.90;99.90;;;;;;4996108;28;20277;-69
2024/02/11 02:27:37;;;;;;;15.67;12.37;;;12.00;99.90;;;;;;4996392;28;20438;-69
2024/02/11 02:30:05;;;;;;;19.27;12.90;;;12.00;99.90;;;;;;4996124;28;20176;-69
2024/02/11 02:32:30;;;;;;;14.13;11.63;;;12.10;99.90;;;;;;4995725;28;20410;-70
2024/02/11 02:34:56;;;;;;;15.00;11.20;;;12.00;99.90;;;;;;4995955;28;20429;-69
2024/02/11 02:37:22;;;;;;;12.63;11.33;;;11.90;99.90;;;;;;4995967;28;20180;-69
2024/02/11 02:39:47;;;;;;;11.73;10.50;;;11.90;99.90;;;;;;4995647;28;20172;-69
2024/02/11 02:42:13;;;;;;;12.13;10.90;;;12.00;99.90;;;;;;4996006;28;20213;-70
2024/02/11 02:44:38;;;;;;;18.50;12.47;;;12.00;99.90;;;;;;4996123;28;20223;-69
2024/02/11 02:47:04;;;;;;;15.83;11.97;;;12.10;99.90;;;;;;4995594;28;20298;-69
2024/02/11 02:49:30;;;;;;;11.33;10.10;;;12.10;99.90;;;;;;4995614;28;20173;-70
2024/02/11 02:51:57;;;;;;;10.70;9.70;;;12.00;99.90;;;;;;4994514;28;20414;-70
2024/02/11 02:54:23;;;;;;;15.70;12.10;;;12.00;99.90;;;;;;4995525;28;20168;-70
2024/02/11 02:56:49;;;;;;;12.10;10.47;;;12.00;99.90;;;;;;4995580;28;20404;-70
2024/02/11 02:59:16;;;;;;;12.73;11.43;;;12.00;99.90;;;;;;4995540;28;20181;-70
2024/02/11 03:01:43;;;;;;;11.03;9.90;;;11.90;99.90;;;;;;4995123;28;20499;-70
2024/02/11 03:04:10;;;;;;;14.97;12.70;;;11.90;99.90;;;;;;4995575;28;20408;-70
2024/02/11 03:06:36;;;;;;;11.07;9.83;;;11.90;99.90;;;;;;4995384;28;20999;-70
2024/02/11 03:09:06;;;;;;;12.90;8.53;;;11.70;99.90;;;;;;4995313;28;20496;-70
2024/02/11 03:11:33;;;;;;;9.40;7.63;;;11.40;99.90;;;;;;4995668;28;20439;-69
2024/02/11 03:13:59;;;;;;;5.90;5.40;;;11.40;99.90;;;;;;4995275;28;20466;-69
2024/02/11 03:16:25;;;;;;;4.57;3.80;;;11.20;99.90;;;;;;4995296;28;20945;-69
2024/02/11 03:18:50;;;;;;;3.13;2.30;;;11.00;99.90;;;;;;4995137;28;20411;-69
2024/02/11 03:21:16;;;;;;;2.27;2.07;;;10.60;99.90;;;;;;4999379;28;20734;-69
2024/02/11 03:23:42;;;;;;;2.03;1.60;;;10.50;99.90;;;;;;5014972;28;20173;-69
2024/02/11 03:26:11;;;;;;;1.70;1.20;;;10.40;99.90;;;;;;5014726;28;20184;-69
2024/02/11 03:28:40;;;;;;;1.40;1.10;;;10.10;99.90;;;;;;5014711;28;20533;-70
2024/02/11 03:31:07;;;;;;;1.10;0.80;;;10.20;99.90;;;;;;4994973;28;20870;-69
2024/02/11 03:33:33;;;;;;;0.93;0.70;;;10.10;99.90;;;;;;4995072;28;20753;-69
2024/02/11 03:35:59;;;;;;;1.37;0.70;;;10.00;99.90;;;;;;4993418;28;20440;-69
2024/02/11 03:38:25;;;;;;;1.00;0.70;;;10.00;99.90;;;;;;4994718;28;20399;-69
2024/02/11 03:40:52;;;;;;;1.27;0.70;;;9.80;99.90;;;;;;4993213;28;20520;-69
2024/02/11 03:43:21;;;;;;;0.73;0.50;;;9.90;99.90;;;;;;4994582;28;20168;-69
2024/02/11 03:45:48;;;;;;;0.80;0.50;;;9.70;99.90;;;;;;4994616;28;20938;-69
2024/02/11 03:48:14;;;;;;;0.80;0.57;;;9.60;99.90;;;;;;4994849;28;20406;-69
2024/02/11 03:50:40;;;;;;;1.67;0.73;;;9.60;99.90;;;;;;4994680;28;20489;-69
2024/02/11 03:53:07;;;;;;;0.80;0.50;;;9.60;99.90;;;;;;4994565;28;20411;-70
2024/02/11 03:55:32;;;;;;;0.97;0.43;;;9.50;99.90;;;;;;4994343;28;20446;-69
2024/02/11 03:58:02;;;;;;;2.67;0.50;;;9.50;99.90;;;;;;4994883;28;20409;-69
2024/02/11 04:00:30;;;;;;;0.77;0.50;;;9.50;99.90;;;;;;4994658;28;20203;-69
2024/02/11 04:02:57;;;;;;;0.70;0.40;;;9.50;99.90;;;;;;4994430;28;20421;-69
2024/02/11 04:05:24;;;;;;;0.70;0.50;;;9.70;99.90;;;;;;4993974;28;20450;-69
2024/02/11 04:07:50;;;;;;;0.70;0.50;;;9.60;99.90;;;;;;4994516;28;20402;-69
2024/02/11 04:10:19;;;;;;;0.80;0.50;;;9.70;99.90;;;;;;4994395;28;20407;-69
2024/02/11 04:12:48;;;;;;;1.90;0.50;;;9.70;99.90;;;;;;4994373;28;20549;-69
2024/02/11 04:15:19;;;;;;;0.70;0.40;;;9.60;99.90;;;;;;4994230;28;20433;-69
2024/02/11 04:17:48;;;;;;;0.63;0.40;;;9.50;99.90;;;;;;4994390;28;20398;-68
2024/02/11 04:20:23;;;;;;;0.70;0.50;;;9.40;99.90;;;;;;4994453;28;20520;-69
2024/02/11 04:22:55;;;;;;;0.90;0.50;;;9.50;99.90;;;;;;4994260;28;20775;-69
2024/02/11 04:25:22;;;;;;;0.70;0.60;;;9.50;99.90;;;;;;4994405;28;20516;-68
2024/02/11 04:27:49;;;;;;;0.70;0.40;;;9.40;99.90;;;;;;4992720;28;20421;-68
2024/02/11 04:30:19;;;;;;;0.60;0.40;;;9.50;99.90;;;;;;4993921;28;20796;-69
2024/02/11 04:32:48;;;;;;;0.97;0.50;;;9.40;99.90;;;;;;4994232;28;20515;-69
2024/02/11 04:35:17;;;;;;;1.07;0.57;;;9.50;99.90;;;;;;4994496;28;20443;-70
2024/02/11 04:37:46;;;;;;;1.00;0.63;;;9.40;99.90;;;;;;4993814;28;20396;-69
2024/02/11 04:40:18;;;;;;;0.80;0.50;;;9.50;99.90;;;;;;4993955;28;20410;-69
2024/02/11 04:42:45;;;;;;;1.10;0.50;;;9.50;99.90;;;;;;4992549;28;20415;-69
2024/02/11 04:45:17;;;;;;;0.67;0.40;;;9.40;99.90;;;;;;4993855;28;20427;-70
2024/02/11 04:48:00;;;;;;;1.17;0.53;;;9.50;99.90;;;;;;4993927;28;20906;-70
2024/02/11 04:50:26;;;;;;;0.90;0.50;;;9.50;99.90;;;;;;4993933;28;20396;-70
2024/02/11 04:52:58;;;;;;;0.80;0.40;;;9.50;99.90;;;;;;4993761;28;20444;-70
2024/02/11 04:55:27;;;;;;;0.87;0.40;;;9.70;99.90;;;;;;4991701;28;20479;-70
2024/02/11 04:57:53;;;;;;;1.00;0.50;;;9.60;99.90;;;;;;4994027;28;20415;-70
2024/02/11 05:00:25;;;;;;;0.93;0.50;;;9.50;99.90;;;;;;4992645;28;20452;-70
2024/02/11 05:02:55;;;;;;;0.60;0.40;;;9.40;99.90;;;;;;5020482;23;20539;-70
2024/02/11 05:05:30;;;;;;;0.63;0.50;;;9.40;99.90;;;;;;5012721;28;20485;-70
2024/02/11 05:08:03;;;;;;;0.70;0.50;;;9.50;99.90;;;;;;5012519;28;20399;-70
2024/02/11 05:10:39;;;;;;;0.73;0.50;;;9.40;99.90;;;;;;5013073;28;20389;-71
2024/02/11 05:13:05;;;;;;;0.93;0.40;;;9.20;99.90;;;;;;5012788;28;20424;-71
2024/02/11 05:15:32;;;;;;;0.60;0.40;;;9.30;99.90;;;;;;5012711;28;20400;-70
2024/02/11 05:17:58;;;;;;;0.70;0.63;;;9.00;99.90;;;;;;5013013;28;20453;-70
2024/02/11 05:20:25;;;;;;;0.80;0.50;;;9.00;99.90;;;;;;5013552;28;20983;-70
2024/02/11 05:22:52;;;;;;;2.90;0.40;;;9.00;99.90;;;;;;5012640;28;20566;-70
2024/02/11 05:25:22;;;;;;;0.80;0.50;;;9.00;99.90;;;;;;5011479;28;20989;-71
2024/02/11 05:27:59;;;;;;;0.70;0.40;;;9.00;99.90;;;;;;4993085;28;20790;-71
2024/02/11 05:30:34;;;;;;;0.80;0.47;;;8.70;99.90;;;;;;4993082;28;20388;-70
2024/02/11 05:33:02;;;;;;;0.70;0.50;;;8.70;99.90;;;;;;4992978;28;20428;-71
2024/02/11 05:35:28;;;;;;;0.80;0.50;;;8.70;99.90;;;;;;4994068;28;20977;-71
2024/02/11 05:37:58;;;;;;;0.70;0.60;;;8.70;99.90;;;;;;5012824;28;20772;-71
2024/02/11 05:40:27;;;;;;;1.00;0.50;;;8.70;99.90;;;;;;5012474;28;20437;-70
2024/02/11 05:42:57;;;;;;;0.70;0.50;;;8.70;99.90;;;;;;5012432;28;20430;-70
2024/02/11 05:45:23;;;;;;;0.70;0.50;;;8.80;99.90;;;;;;5012380;28;20428;-70
2024/02/11 05:47:49;;;;;;;0.80;0.50;;;8.80;99.90;;;;;;5012704;28;20905;-70
2024/02/11 05:50:16;;;;;;;0.80;0.50;;;8.80;99.90;;;;;;5014397;28;20414;-71
2024/02/11 05:52:42;;;;;;;0.70;0.40;;;8.80;99.90;;;;;;5016151;28;20969;-71
2024/02/11 05:55:09;;;;;;;1.07;0.50;;;8.80;99.90;;;;;;5015863;28;20404;-70
2024/02/11 05:57:39;;;;;;;1.43;0.50;;;8.70;99.90;;;;;;5015710;28;20223;-71
2024/02/11 06:00:12;;;;;;;0.70;0.50;;;8.80;99.90;;;;;;5015656;28;20440;-70
2024/02/11 06:02:53;;;;;;;0.60;0.40;;;8.60;99.90;;;;;;5015567;28;20463;-70
2024/02/11 06:05:19;;;;;;;0.70;0.40;;;8.60;99.90;;;;;;5014245;28;20416;-70
2024/02/11 06:07:49;;;;;;;0.80;0.50;;;8.40;99.90;;;;;;5015775;28;20399;-71
2024/02/11 06:10:16;;;;;;;0.70;0.47;;;8.50;99.90;;;;;;5016091;28;20460;-70
2024/02/11 06:12:43;;;;;;;0.70;0.40;;;8.60;99.90;;;;;;5015668;28;20494;-72
2024/02/11 06:15:14;;;;;;;0.70;0.50;;;8.50;99.90;;;;;;5015471;28;20781;-71
2024/02/11 06:17:42;;;;;;;1.20;0.60;;;8.60;99.90;;;;;;4995826;28;20421;-71
2024/02/11 06:20:13;;;;;;;0.90;0.73;;;8.60;99.90;;;;;;4995983;28;20813;-70
2024/02/11 06:22:39;;;;;;;0.80;0.60;;;8.60;99.90;;;;;;4995749;28;20419;-71
2024/02/11 06:25:05;;;;;;;0.80;0.60;;;8.70;99.90;;;;;;4995682;28;20436;-71
2024/02/11 06:27:32;;;;;;;0.70;0.60;;;8.50;99.90;;;;;;5014164;28;20418;-71
2024/02/11 06:29:57;;;;;;;0.80;0.67;;;8.40;99.90;;;;;;5015420;28;20801;-71
2024/02/11 06:32:23;;;;;;;1.10;0.80;;;8.50;99.90;;;;;;5015070;28;20440;-71
2024/02/11 06:34:49;;;;;;;1.10;0.60;;;8.40;99.90;;;;;;5015112;28;20190;-70
2024/02/11 06:37:15;;;;;;;1.10;0.90;;;8.50;99.90;;;;;;5014911;28;20413;-70
2024/02/11 06:39:41;;;;;;;1.10;1.00;;;8.40;99.90;;;;;;5015188;28;20208;-71
2024/02/11 06:42:09;;;;;;;0.90;0.60;;;8.30;99.90;;;;;;5015002;28;20459;-71
2024/02/11 06:44:38;;;;;;;1.03;0.90;;;8.30;99.90;;;;;;5014822;28;20175;-70
2024/02/11 06:47:08;;;;;;;1.33;1.10;;;8.60;99.90;;;;;;5014543;28;20401;-69
2024/02/11 06:49:36;;;;;;;1.20;0.93;;;8.50;99.90;;;;;;5013210;28;20944;-71
2024/02/11 06:52:02;;;;;;;1.40;1.10;;;8.50;99.90;;;;;;5014921;28;20431;-71
2024/02/11 06:54:28;;;;;;;2.10;1.50;;;8.50;99.90;;;;;;5014863;28;20473;-71
2024/02/11 06:56:54;;;;;;;1.23;1.13;;;8.50;99.90;;;;;;5014717;28;20173;-71
2024/02/11 06:59:19;;;;;;;1.83;1.50;;;8.30;99.90;;;;;;5014145;28;20176;-70
2024/02/11 07:01:45;;;;;;;1.30;1.10;;;8.20;99.90;;;;;;5012958;28;20467;-71
2024/02/11 07:04:12;;;;;;;1.40;1.07;;;8.30;99.90;;;;;;5013283;28;20178;-71
2024/02/11 07:06:48;;;;;;;1.93;1.30;;;8.30;99.90;;;;;;5014524;28;20187;-71
2024/02/11 07:09:18;;;;;;;2.20;1.50;;;8.20;99.90;;;;;;5014828;28;20746;-71
2024/02/11 07:11:43;;;;;;;1.30;1.10;;;8.30;99.90;;;;;;5022420;28;20469;-70
2024/02/11 07:14:09;;;;;;;1.17;1.07;;;8.20;99.90;;;;;;5034178;28;20780;-71
2024/02/11 07:16:38;;;;;;;1.47;1.37;;;8.30;99.90;;;;;;5024327;28;20548;-72
2024/02/11 07:19:09;;;;;;;1.40;1.30;;;8.20;99.90;;;;;;5013063;28;20214;-71
2024/02/11 07:21:36;;;;;;;2.40;1.20;;;8.10;99.90;;;;;;5014600;28;20453;-71
2024/02/11 07:24:04;;;;;;;1.20;1.10;;;8.20;99.90;;;;;;5014309;28;20402;-71
2024/02/11 07:26:30;;;;;;;1.43;1.33;;;8.10;99.90;;;;;;5014083;28;20407;-71
2024/02/11 07:28:56;;;;;;;2.10;1.50;;;8.20;99.90;;;;;;5015477;28;20410;-70
2024/02/11 07:31:22;;;;;;;2.10;1.90;;;8.00;99.90;;;;;;5013973;28;20963;-71
2024/02/11 07:33:49;;;;;;;1.70;1.60;;;8.00;99.90;;;;;;5014254;28;20177;-70
2024/02/11 07:36:16;;;;;;;1.47;1.13;;;8.00;99.90;;;;;;5013888;28;20444;-70
2024/02/11 07:38:43;;;;;;;2.30;1.60;;;8.20;99.90;;;;;;5013901;28;20492;-70
2024/02/11 07:41:09;;;;;;;2.23;1.67;;;8.40;99.90;;;;;;5013844;28;20444;-70
2024/02/11 07:43:35;;;;;;;3.10;2.50;;;8.40;99.90;;;;;;5013881;28;20400;-71
2024/02/11 07:46:05;;;;;;;3.20;2.40;;;8.30;99.90;;;;;;5013752;28;20407;-71
2024/02/11 07:48:31;;;;;;;3.23;2.63;;;8.20;99.90;;;;;;5014041;28;20166;-71
2024/02/11 07:50:57;;;;;;;3.37;2.53;;;8.30;99.90;;;;;;5012387;28;20498;-71
2024/02/11 07:53:22;;;;;;;2.50;2.20;;;8.30;99.90;;;;;;5013811;28;20460;-70
2024/02/11 07:55:48;;;;;;;4.20;2.50;;;8.30;99.90;;;;;;5013760;28;20839;-70
2024/02/11 07:58:14;;;;;;;3.27;2.97;;;8.30;99.90;;;;;;5012273;28;20187;-71
2024/02/11 08:00:40;;;;;;;3.47;3.10;;;8.30;99.90;;;;;;5013552;28;20200;-71
2024/02/11 08:03:09;;;;;;;5.40;3.10;;;8.10;99.90;;;;;;5013318;28;20730;-71
2024/02/11 08:05:37;;;;;;;5.10;3.10;;;8.20;99.90;;;;;;5013700;28;20406;-71
2024/02/11 08:08:03;;;;;;;5.20;4.03;;;8.40;99.90;;;;;;5013670;28;20420;-70
2024/02/11 08:10:29;;;;;;;4.67;3.40;;;8.40;99.90;;;;;;5013315;28;20412;-70
2024/02/11 08:12:55;;;;;;;3.87;3.50;;;8.50;99.90;;;;;;5013127;28;20215;-70
2024/02/11 08:15:21;;;;;;;4.10;3.37;;;8.50;99.90;;;;;;5013958;28;20527;-70
2024/02/11 08:17:46;;;;;;;5.37;3.90;;;8.50;99.90;;;;;;5013545;28;20862;-71
2024/02/11 08:20:12;;;;;;;7.93;4.20;;;8.70;99.90;;;;;;5013256;28;20443;-71
2024/02/11 08:22:38;;;;;;;4.80;3.63;;;8.80;99.90;;;;;;5013291;28;20368;-71
2024/02/11 08:25:07;;;;;;;5.30;4.43;;;8.90;99.90;;;;;;5013372;28;20539;-69
2024/02/11 08:27:34;;;;;;;5.83;4.50;;;9.00;99.90;;;;;;5013097;28;20411;-71
2024/02/11 08:29:59;;;;;;;5.77;4.33;;;8.90;99.90;;;;;;5013100;28;20471;-70
2024/02/11 08:32:25;;;;;;;4.20;3.80;;;9.00;99.90;;;;;;5013207;28;20922;-72
2024/02/11 08:34:51;;;;;;;7.47;4.70;;;9.20;99.90;;;;;;5013257;28;20182;-71
2024/02/11 08:37:17;;;;;;;5.60;4.50;;;9.30;99.90;;;;;;5013086;28;20500;-71
2024/02/11 08:39:43;;;;;;;5.30;4.70;;;9.30;99.90;;;;;;5013196;28;20496;-71
2024/02/11 08:42:09;;;;;;;5.63;4.70;;;9.20;99.90;;;;;;5012876;28;20202;-71
2024/02/11 08:44:35;;;;;;;5.67;4.30;;;9.40;99.90;;;;;;5012980;28;20221;-71
2024/02/11 08:47:02;;;;;;;7.20;4.80;;;9.30;99.90;;;;;;5013209;28;20453;-71
2024/02/11 08:49:29;;;;;;;6.33;4.33;;;9.30;99.90;;;;;;5013228;28;20454;-70
2024/02/11 08:51:55;;;;;;;9.10;4.37;;;9.30;99.90;;;;;;5012735;28;20478;-71
2024/02/11 08:54:20;;;;;;;8.17;4.20;;;9.30;99.90;;;;;;5013038;28;20990;-71
2024/02/11 08:56:47;;;;;;;5.77;4.90;;;9.30;99.90;;;;;;5013171;28;20496;-70
2024/02/11 08:59:13;;;;;;;5.90;4.33;;;9.50;99.90;;;;;;5013011;28;20317;-70
2024/02/11 09:01:40;;;;;;;5.40;3.87;;;9.10;99.90;;;;;;5012796;28;20547;-71
2024/02/11 09:04:09;;;;;;;6.70;4.60;;;9.20;99.90;;;;;;4995675;28;20406;-70
2024/02/11 09:06:35;;;;;;;5.73;4.50;;;9.40;99.90;;;;;;5004553;28;20497;-70
2024/02/11 09:09:00;;;;;;;4.53;4.13;;;9.30;99.90;;;;;;5013151;28;20579;-72
2024/02/11 09:11:26;;;;;;;5.00;4.40;;;9.50;99.90;;;;;;5013023;28;20300;-71
2024/02/11 09:13:52;;;;;;;5.07;4.00;;;9.70;99.90;;;;;;5013453;28;20186;-70
2024/02/11 09:16:19;;;;;;;5.60;4.27;;;9.80;99.90;;;;;;5012994;28;20217;-71
2024/02/11 09:18:44;;;;;;;4.97;3.93;;;9.80;99.90;;;;;;5011513;28;20426;-68
2024/02/11 09:21:11;;;;;;;5.43;4.13;;;10.00;99.90;;;;;;5012738;28;20446;-71
2024/02/11 09:23:36;;;;;;;4.40;4.00;;;10.30;99.90;;;;;;5015667;28;20652;-71
2024/02/11 09:26:02;;;;;;;5.93;4.17;;;10.30;99.90;;;;;;5016680;28;20400;-70
2024/02/11 09:28:29;;;;;;;5.97;3.40;;;10.00;99.90;;;;;;5016800;28;20174;-70
2024/02/11 09:30:55;;;;;;;5.27;4.30;;;10.10;99.90;;;;;;5016758;28;20791;-71
2024/02/11 09:33:21;;;;;;;4.53;3.87;;;10.20;99.90;;;;;;5016359;28;20525;-70
2024/02/11 09:35:47;;;;;;;5.20;4.70;;;10.30;99.90;;;;;;5016696;28;20175;-71
2024/02/11 09:38:14;;;;;;;6.50;4.57;;;10.40;99.90;;;;;;5016609;28;20536;-72
2024/02/11 09:40:39;;;;;;;4.47;3.50;;;10.50;99.90;;;;;;5016617;28;20447;-69
2024/02/11 09:43:06;;;;;;;5.50;4.00;;;10.40;99.90;;;;;;5016796;28;20521;-71
2024/02/11 09:45:34;;;;;;;7.53;4.03;;;10.40;99.90;;;;;;5016186;28;20175;-71
2024/02/11 09:48:02;;;;;;;5.00;4.50;;;10.70;99.90;;;;;;5015981;28;20404;-71
2024/02/11 09:50:29;;;;;;;5.53;4.10;;;10.70;99.90;;;;;;5016579;28;20414;-71
2024/02/11 09:52:55;;;;;;;6.33;4.90;;;10.50;99.90;;;;;;5015802;28;20480;-71
2024/02/11 09:55:21;;;;;;;4.10;3.70;;;10.50;99.90;;;;;;5015846;28;20406;-71
2024/02/11 09:57:47;;;;;;;7.70;3.90;;;10.50;99.90;;;;;;5015842;28;20182;-71
2024/02/11 10:00:13;;;;;;;6.23;4.10;;;10.50;99.90;;;;;;5014949;28;20263;-71
2024/02/11 10:02:40;;;;;;;7.80;4.03;;;10.80;99.90;;;;;;5015723;28;20446;-71
2024/02/11 10:05:09;;;;;;;5.10;4.00;;;10.90;99.90;;;;;;5015503;28;20406;-71
2024/02/11 10:07:39;;;;;;;5.90;4.30;;;11.00;99.90;;;;;;5015534;28;20509;-71
2024/02/11 10:10:05;;;;;;;7.97;4.67;;;11.00;99.90;;;;;;5014261;28;20407;-71
2024/02/11 10:12:33;;;;;;;5.53;4.03;;;11.00;99.90;;;;;;5016040;28;20442;-71
2024/02/11 10:14:59;;;;;;;4.60;3.93;;;11.00;99.90;;;;;;5015621;28;20805;-71
2024/02/11 10:17:25;;;;;;;5.10;4.60;;;10.90;99.90;;;;;;5015760;28;20423;-70
2024/02/11 10:19:52;;;;;;;9.03;4.57;;;10.70;99.90;;;;;;5015884;28;20438;-70
2024/02/11 10:22:18;;;;;;;4.77;4.27;;;11.00;99.90;;;;;;5015585;28;20886;-70
2024/02/11 10:24:49;;;;;;;4.43;4.03;;;11.10;99.90;;;;;;5015411;28;20409;-69
2024/02/11 10:27:15;;;;;;;6.30;4.10;;;11.50;99.90;;;;;;5014009;28;20836;-70
2024/02/11 10:29:42;;;;;;;5.77;4.80;;;11.60;99.90;;;;;;5015367;28;20492;-70
2024/02/11 10:32:13;;;;;;;5.10;4.00;;;11.30;99.90;;;;;;5015386;28;20521;-70
2024/02/11 10:34:43;;;;;;;7.80;5.00;;;11.40;99.90;;;;;;5014173;28;20395;-71
2024/02/11 10:37:15;;;;;;;8.63;4.87;;;11.60;99.90;;;;;;5014325;28;20458;-70
2024/02/11 10:39:42;;;;;;;5.63;3.90;;;11.60;99.90;;;;;;5015071;28;20792;-70
2024/02/11 10:42:11;;;;;;;4.63;4.00;;;11.90;99.90;;;;;;5015092;28;20544;-71
2024/02/11 10:44:43;;;;;;;6.27;3.87;;;11.70;99.90;;;;;;5015379;28;20418;-71
2024/02/11 10:47:09;;;;;;;5.30;4.10;;;11.70;99.90;;;;;;5015860;28;20478;-71
2024/02/11 10:49:35;;;;;;;8.47;4.70;;;11.20;99.90;;;;;;5015338;28;20420;-70
2024/02/11 10:52:13;;;;;;;5.10;4.53;;;11.40;99.90;;;;;;5014969;28;20437;-71
2024/02/11 10:54:42;;;;;;;5.87;4.10;;;11.90;99.90;;;;;;5014421;28;20431;-71
2024/02/11 10:57:12;;;;;;;4.93;4.00;;;12.00;99.90;;;;;;5015152;28;20928;-71
2024/02/11 10:59:49;;;;;;;4.40;3.83;;;12.20;99.90;;;;;;5015055;28;20400;-71
2024/02/11 11:02:15;;;;;;;4.20;3.73;;;12.20;99.90;;;;;;5023202;23;20519;-70
2024/02/11 11:04:44;;;;;;;6.90;4.03;;;12.00;99.90;;;;;;4995333;28;20397;-73
2024/02/11 11:07:13;;;;;;;7.43;4.20;;;11.90;99.90;;;;;;5020897;28;20417;-71
2024/02/11 11:09:40;;;;;;;5.30;3.73;;;11.90;99.90;;;;;;5013767;28;20935;-71
2024/02/11 11:12:09;;;;;;;5.80;3.53;;;11.80;99.90;;;;;;5012344;28;20412;-72
2024/02/11 11:14:45;;;;;;;6.73;3.83;;;11.60;99.90;;;;;;4995203;28;20895;-72
2024/02/11 11:17:29;;;;;;;4.80;3.93;;;11.60;99.90;;;;;;4995152;28;20478;-72
2024/02/11 11:19:59;;;;;;;5.07;4.10;;;11.50;99.90;;;;;;4995476;28;20417;-72
2024/02/11 11:22:28;;;;;;;5.53;3.47;;;11.50;99.90;;;;;;4993581;28;20656;-70
2024/02/11 11:24:56;;;;;;;5.97;3.67;;;11.40;99.90;;;;;;4995087;28;20407;-71
2024/02/11 11:27:22;;;;;;;6.30;3.87;;;11.50;99.90;;;;;;4995251;28;20438;-72
2024/02/11 11:29:49;;;;;;;4.53;3.13;;;11.60;99.90;;;;;;4994945;28;20416;-71
2024/02/11 11:32:22;;;;;;;4.57;4.07;;;11.60;99.90;;;;;;4994736;28;20429;-72
2024/02/11 11:34:50;;;;;;;5.73;3.63;;;11.70;99.90;;;;;;4994960;28;20464;-72
2024/02/11 11:37:15;;;;;;;3.73;2.80;;;12.30;99.90;;;;;;4995012;28;20442;-72
2024/02/11 11:39:45;;;;;;;4.47;3.27;;;12.70;99.90;;;;;;4994821;28;20875;-70
2024/02/11 11:42:11;;;;;;;3.97;2.90;;;12.60;99.90;;;;;;4993601;28;20208;-71
2024/02/11 11:44:38;;;;;;;5.97;3.93;;;12.30;99.90;;;;;;4993241;28;20559;-71
2024/02/11 11:47:05;;;;;;;4.03;2.60;;;12.40;99.90;;;;;;4994656;28;20477;-71
2024/02/11 11:49:32;;;;;;;4.20;3.00;;;12.40;99.90;;;;;;4993870;28;20461;-69
2024/02/11 11:51:58;;;;;;;5.20;2.93;;;12.70;99.90;;;;;;4993933;28;20442;-68
2024/02/11 11:54:28;;;;;;;3.00;2.77;;;13.20;99.90;;;;;;4994156;28;20917;-70
2024/02/11 11:56:56;;;;;;;3.33;2.60;;;15.00;99.90;;;;;;4994294;28;20489;-68
2024/02/11 11:59:22;;;;;;;3.37;2.00;;;16.80;99.90;;;;;;4994208;28;20450;-69
2024/02/11 12:01:48;;;;;;;2.67;1.83;;;17.90;99.90;;;;;;4992693;28;20526;-70
2024/02/11 12:04:14;;;;;;;2.70;1.90;;;19.40;98.40;;;;;;4994365;28;20204;-71
2024/02/11 12:06:40;;;;;;;2.80;2.33;;;19.20;98.50;;;;;;4994064;28;20591;-71
2024/02/11 12:09:06;;;;;;;2.20;1.97;;;19.10;97.20;;;;;;4994125;28;20169;-71
2024/02/11 12:11:31;;;;;;;3.40;2.20;;;17.70;97.00;;;;;;4994379;28;20458;-70
2024/02/11 12:13:57;;;;;;;2.23;1.90;;;16.40;99.40;;;;;;4994084;28;20165;-70
2024/02/11 12:16:24;;;;;;;1.90;1.60;;;15.50;99.90;;;;;;4993989;28;20582;-70
2024/02/11 12:18:50;;;;;;;3.43;2.10;;;14.80;99.90;;;;;;4994094;28;20204;-70
2024/02/11 12:21:19;;;;;;;2.43;1.77;;;14.00;99.90;;;;;;4994605;28;20475;-70
2024/02/11 12:23:46;;;;;;;3.40;1.90;;;13.90;99.90;;;;;;4993688;28;20954;-70
2024/02/11 12:26:18;;;;;;;3.57;1.60;;;13.80;99.90;;;;;;4993868;28;20408;-70
2024/02/11 12:28:50;;;;;;;2.80;1.40;;;13.90;99.90;;;;;;4994021;28;20804;-70
2024/02/11 12:31:16;;;;;;;2.00;1.40;;;14.00;99.90;;;;;;4994269;28;20509;-71
2024/02/11 12:33:42;;;;;;;2.03;1.70;;;14.20;99.90;;;;;;4994075;28;20441;-71
2024/02/11 12:36:12;;;;;;;2.10;1.70;;;13.80;99.90;;;;;;4993953;28;20945;-71
2024/02/11 12:38:45;;;;;;;2.63;1.30;;;14.10;99.90;;;;;;4993928;28;20437;-71
2024/02/11 12:41:11;;;;;;;2.20;1.60;;;13.60;99.90;;;;;;4993940;28;20452;-71
2024/02/11 12:43:41;;;;;;;2.87;1.70;;;13.80;99.90;;;;;;4993715;28;20424;-71
2024/02/11 12:46:10;;;;;;;2.20;1.97;;;14.00;99.90;;;;;;4994035;28;20982;-71